Airport details for: EHEH (Netherlands)

Metar

EHEH 270825Z AUTO 25011KT 210V300 9999 FEW020 SCT028 OVC240 19/14 Q1007 BLU 25013G23KT 9999 BKN025 TEMPO SCT016 SCT025 BKN200

General details

ICAO: EHEH
IATA: EIN
Name (city): Eindhoven
Major:
Country: Netherlands
vACC: Dutch VACC
Description:
Scenery links:
FS9 scenery: Download
FSX/P3D scenery: Download
XP scenery:
Elevation: 74 ft.
Transition altitude: 3000 ft.
MSA: 9800 ft.
Latitude: 51.45
Longitude: 5.374445
EHEH Charts
EHEH Notams
EHEH Online stations

Runways

Number Course Length Elevation Lat Lon ILS ILS freq ILS FAC GP
03 34° 9843ft / 3000 m 74ft 51.440925 5.364192 109.75 34° 3.0°
21 214° 9843ft / 3000 m 67ft 51.459342 5.384831 109.75 214° 3.0°